createdAt,value
2023-02-18T00:06:20.198Z,87.65
2023-02-18T00:16:26.313Z,88.77
2023-02-18T00:26:38.164Z,88.40
2023-02-18T00:37:13.557Z,86.48
2023-02-18T00:47:27.759Z,87.13
2023-02-18T00:57:43.044Z,86.09
2023-02-18T01:08:19.779Z,87.41
2023-02-18T01:18:32.760Z,86.89
2023-02-18T01:28:51.556Z,86.33
2023-02-18T01:39:15.959Z,86.33
2023-02-18T01:49:50.728Z,85.41
2023-02-18T02:00:15.282Z,83.44
2023-02-18T02:11:08.158Z,83.21
2023-02-18T02:22:04.814Z,84.88
2023-02-18T02:32:44.516Z,84.96
2023-02-18T02:42:52.491Z,84.70
2023-02-18T02:53:16.699Z,84.58
2023-02-18T03:03:23.952Z,84.36
2023-02-18T03:14:09.092Z,82.67
2023-02-18T03:25:07.065Z,82.86
2023-02-18T03:35:38.269Z,82.49
2023-02-18T03:46:33.522Z,82.01
2023-02-18T03:56:59.089Z,81.59
2023-02-18T04:07:51.230Z,81.50
2023-02-18T04:18:35.020Z,81.72
2023-02-18T04:28:47.477Z,81.75
2023-02-18T04:39:00.156Z,80.78
2023-02-18T04:49:36.048Z,80.61
2023-02-18T05:00:12.871Z,79.59
2023-02-18T05:10:46.541Z,77.62
2023-02-18T05:21:05.247Z,76.36
2023-02-18T05:31:12.659Z,76.09
2023-02-18T05:41:19.935Z,75.31
2023-02-18T05:52:34.474Z,73.91
2023-02-18T06:03:40.019Z,71.32
2023-02-18T06:14:13.753Z,70.83
2023-02-18T06:24:29.283Z,70.30
2023-02-18T06:35:15.105Z,67.10
2023-02-18T06:46:02.727Z,66.40
2023-02-18T06:57:09.998Z,65.16
2023-02-18T07:07:26.554Z,63.24
2023-02-18T07:18:25.165Z,63.78
2023-02-18T07:29:01.596Z,62.72
2023-02-18T07:39:29.286Z,61.94
2023-02-18T07:50:43.229Z,61.34
2023-02-18T08:01:07.731Z,60.19
2023-02-18T08:12:15.740Z,59.37
2023-02-18T08:23:31.638Z,58.52
2023-02-18T08:34:56.525Z,58.16
2023-02-18T08:45:59.967Z,57.20
2023-02-18T08:56:39.941Z,57.69
2023-02-18T09:07:35.491Z,57.16
2023-02-18T09:18:44.092Z,56.79
2023-02-18T09:29:55.282Z,56.18
2023-02-18T09:41:05.084Z,56.23
2023-02-18T09:52:09.660Z,56.61
2023-02-18T10:03:22.919Z,56.81
2023-02-18T10:14:24.538Z,56.60
2023-02-18T10:25:49.339Z,54.32
2023-02-18T10:37:02.495Z,53.51
2023-02-18T10:47:33.184Z,53.55
2023-02-18T10:58:29.334Z,52.01
2023-02-18T11:08:47.039Z,52.20
2023-02-18T11:19:05.537Z,54.00
2023-02-18T11:29:24.918Z,55.25
2023-02-18T11:40:05.614Z,55.89
2023-02-18T11:50:38.472Z,56.29
2023-02-18T12:01:56.693Z,57.25
2023-02-18T12:12:38.951Z,57.99
2023-02-18T12:23:30.903Z,58.39
2023-02-18T12:34:20.306Z,58.88
2023-02-18T12:44:45.648Z,59.20
2023-02-18T13:06:23.542Z,59.85
2023-02-18T13:17:37.335Z,60.34
2023-02-18T13:42:23.523Z,62.66
2023-02-18T13:54:09.442Z,63.62
2023-02-18T14:05:28.345Z,64.22
2023-02-18T14:16:44.732Z,64.89
2023-02-18T14:28:11.459Z,65.87
2023-02-18T14:39:31.844Z,67.16
2023-02-18T14:50:57.412Z,68.46
2023-02-18T15:02:17.252Z,70.00
2023-02-18T15:13:43.064Z,71.36
2023-02-18T15:24:51.085Z,73.14
2023-02-18T15:35:59.006Z,74.25
2023-02-18T15:47:14.491Z,75.38
2023-02-18T15:58:42.971Z,76.85
2023-02-18T16:09:50.620Z,78.09
2023-02-18T16:21:12.625Z,77.77
2023-02-18T16:32:21.367Z,78.27
2023-02-18T16:43:39.997Z,79.63
2023-02-18T16:54:52.313Z,80.89
2023-02-18T17:06:18.323Z,81.05
2023-02-18T17:17:44.159Z,81.59
2023-02-18T17:28:41.440Z,82.03
2023-02-18T17:39:58.786Z,85.16
2023-02-18T17:50:27.933Z,86.86
2023-02-18T18:01:26.472Z,87.02
2023-02-18T18:12:33.456Z,86.76
2023-02-18T18:23:34.733Z,87.10
2023-02-18T18:34:52.603Z,86.73
2023-02-18T18:46:19.181Z,86.29
2023-02-18T18:57:47.328Z,85.56
2023-02-18T19:09:10.911Z,86.33
2023-02-18T19:20:28.824Z,87.07
2023-02-18T19:31:25.183Z,87.03
2023-02-18T19:42:24.445Z,85.60
2023-02-18T19:53:48.743Z,84.42
2023-02-18T20:05:09.565Z,84.45
2023-02-18T20:16:31.599Z,83.65
2023-02-18T20:28:01.828Z,83.70
2023-02-18T20:39:16.665Z,83.62
2023-02-18T20:50:35.597Z,83.19
2023-02-18T21:01:59.329Z,82.39
2023-02-18T21:13:16.209Z,81.85
2023-02-18T21:24:34.074Z,81.07
2023-02-18T21:35:46.096Z,80.12
2023-02-18T21:47:13.397Z,79.16
2023-02-18T21:58:32.756Z,78.45
2023-02-18T22:09:50.805Z,79.43
2023-02-18T22:21:16.532Z,80.52
2023-02-18T22:32:41.403Z,81.50
2023-02-18T22:44:06.611Z,82.12
2023-02-18T22:55:24.348Z,83.31
2023-02-18T23:06:49.227Z,83.83
2023-02-18T23:18:07.410Z,84.43
2023-02-18T23:29:06.590Z,84.50
2023-02-18T23:40:22.700Z,85.14
2023-02-18T23:51:34.965Z,84.96
